Messwerte Nuuk (Godthåb)

Temperatur

Temperatur
°C
1532160000 6.00 6.00 5
1532163600 7.00 7.00 6
1532167200 8.00 8.00 5
1532170800 9.00 9.00
1532174400 10.00 10.00 5
1532178000 11.00 11.00 5
1532181600 12.00 12.00 6
1532185200 13.00 13.00 6
1532188800 14.00 14.00 5
1532192400 15.00 15.00 5
1532196000 16.00 16.00
1532199600 17.00 17.00 4
1532203200 18.00 18.00 4
1532206800 19.00 19.00 5
1532210400 20.00 20.00 4
1532214000 21.00 21.00 4
1532217600 22.00 22.00 4
1532221200 23.00 23.00
1532224800 0.00 0.00 4
1532228400 1.00 1.00 4
1532232000 2.00 2.00 4
1532235600 3.00 3.00 3
1532239200 4.00 4.00 3
1532242800 5.00 5.00 2

Aktuellste Messwerte

Wettercharakter
Wetter: bedeckt
Temperatur
2 °C
Feuchtigkeit
100 %
Wind
15 km/hWindrichtung: Nordwest
Luftdruck
1015 hPa
Messzeit: 22. Juli 2018, 6.00Datenquelle: METAR

Weitere Messstationen in der Nähe

Messstation Temperatur Entfernung
Sdr Stroemfjord 7 °C 317 km
Narsarsuaq 6 °C 467 km

Wind

Windrichtung Böen Mittelwind
° km/h km/h
1532160000 6.00 5.00 - 6.00 180° 15
1532163600 7.00 6.00 - 7.00 190° 15
1532167200 8.00 7.00 - 8.00 190° 20
1532170800 9.00 8.00 - 9.00
1532174400 10.00 9.00 - 10.00 220° 20
1532178000 11.00 10.00 - 11.00 210° 15
1532181600 12.00 11.00 - 12.00 210° 10
1532185200 13.00 12.00 - 13.00 200° 15
1532188800 14.00 13.00 - 14.00 200° 15
1532192400 15.00 14.00 - 15.00 220° 10
1532196000 16.00 15.00 - 16.00
1532199600 17.00 16.00 - 17.00 250° 10
1532203200 18.00 17.00 - 18.00 260° 10
1532206800 19.00 18.00 - 19.00 260° 10
1532210400 20.00 19.00 - 20.00 260° 10
1532214000 21.00 20.00 - 21.00 280° 5
1532217600 22.00 21.00 - 22.00 280° 5
1532221200 23.00 22.00 - 23.00
1532224800 0.00 23.00 - 0.00 300° 10
1532228400 1.00 0.00 - 1.00 300° 15
1532232000 2.00 1.00 - 2.00 310° 10
1532235600 3.00 2.00 - 3.00 320° 10
1532239200 4.00 3.00 - 4.00 310° 10
1532242800 5.00 4.00 - 5.00 330° 10

Ihre Wetterstation

Fehlt Ihre Wetterstation auf unserem Portal?

Schreiben Sie an network@meteonews.ch

Klima

Wann ist es am wärmsten? Wann regnet es am wenigsten? Unsere Klimadaten geben Auskunft.